sensor_id;sensor_type;location;lat;lon;timestamp;pressure;altitude;pressure_sealevel;temperature;humidity
39613;BME280;25303;48.896;13.342;2023-01-25T00:02:30;94137.63;;;3.39;57.32
39613;BME280;25303;48.896;13.342;2023-01-25T00:05:13;94131.72;;;3.39;57.65
39613;BME280;25303;48.896;13.342;2023-01-25T00:07:56;94137.72;;;3.38;57.49
39613;BME280;25303;48.896;13.342;2023-01-25T00:10:39;94135.22;;;3.36;57.57
39613;BME280;25303;48.896;13.342;2023-01-25T00:13:22;94139.50;;;3.36;57.48
39613;BME280;25303;48.896;13.342;2023-01-25T00:16:05;94132.78;;;3.34;57.44
39613;BME280;25303;48.896;13.342;2023-01-25T00:18:49;94133.94;;;3.29;57.44
39613;BME280;25303;48.896;13.342;2023-01-25T00:21:32;94144.28;;;3.26;57.57
39613;BME280;25303;48.896;13.342;2023-01-25T00:24:15;94145.41;;;3.20;57.54
39613;BME280;25303;48.896;13.342;2023-01-25T00:26:58;94134.75;;;3.13;57.41
39613;BME280;25303;48.896;13.342;2023-01-25T00:29:41;94140.63;;;3.14;57.46
39613;BME280;25303;48.896;13.342;2023-01-25T00:32:32;94141.47;;;3.14;57.60
39613;BME280;25303;48.896;13.342;2023-01-25T00:35:20;94141.38;;;3.16;57.74
39613;BME280;25303;48.896;13.342;2023-01-25T00:38:23;94137.84;;;3.18;57.67
39613;BME280;25303;48.896;13.342;2023-01-25T00:41:09;94136.03;;;3.21;57.49
39613;BME280;25303;48.896;13.342;2023-01-25T00:43:52;94134.34;;;3.21;57.69
39613;BME280;25303;48.896;13.342;2023-01-25T00:46:35;94118.16;;;3.22;57.64
39613;BME280;25303;48.896;13.342;2023-01-25T00:49:21;94128.34;;;3.22;57.57
39613;BME280;25303;48.896;13.342;2023-01-25T00:52:08;94132.84;;;3.17;57.55
39613;BME280;25303;48.896;13.342;2023-01-25T00:54:51;94124.47;;;3.15;57.44
39613;BME280;25303;48.896;13.342;2023-01-25T00:57:34;94126.28;;;3.13;57.29
39613;BME280;25303;48.896;13.342;2023-01-25T01:00:17;94132.91;;;3.15;57.47
39613;BME280;25303;48.896;13.342;2023-01-25T01:03:00;94121.03;;;3.16;57.59
39613;BME280;25303;48.896;13.342;2023-01-25T01:05:43;94122.81;;;3.14;57.50
39613;BME280;25303;48.896;13.342;2023-01-25T01:08:27;94125.38;;;3.14;57.37
39613;BME280;25303;48.896;13.342;2023-01-25T01:11:11;94125.38;;;3.14;57.55
39613;BME280;25303;48.896;13.342;2023-01-25T01:13:55;94128.66;;;3.16;57.38
39613;BME280;25303;48.896;13.342;2023-01-25T01:16:38;94134.81;;;3.12;57.37
39613;BME280;25303;48.896;13.342;2023-01-25T01:19:23;94122.41;;;3.06;57.36
39613;BME280;25303;48.896;13.342;2023-01-25T01:22:06;94126.56;;;3.07;57.52
39613;BME280;25303;48.896;13.342;2023-01-25T01:24:51;94134.22;;;3.07;57.28
39613;BME280;25303;48.896;13.342;2023-01-25T01:27:33;94126.41;;;3.10;57.47
39613;BME280;25303;48.896;13.342;2023-01-25T01:30:16;94128.91;;;3.11;57.21
39613;BME280;25303;48.896;13.342;2023-01-25T01:32:59;94124.63;;;3.12;57.41
39613;BME280;25303;48.896;13.342;2023-01-25T01:35:43;94131.44;;;3.11;57.34
39613;BME280;25303;48.896;13.342;2023-01-25T01:38:27;94129.66;;;3.13;57.46
39613;BME280;25303;48.896;13.342;2023-01-25T01:41:11;94126.03;;;3.17;57.46
39613;BME280;25303;48.896;13.342;2023-01-25T01:43:55;94131.84;;;3.19;57.55
39613;BME280;25303;48.896;13.342;2023-01-25T01:46:38;94119.06;;;3.21;57.62
39613;BME280;25303;48.896;13.342;2023-01-25T01:49:28;94117.50;;;3.18;57.42
39613;BME280;25303;48.896;13.342;2023-01-25T01:52:27;94130.56;;;3.12;57.23
39613;BME280;25303;48.896;13.342;2023-01-25T01:55:13;94141.69;;;3.10;57.39
39613;BME280;25303;48.896;13.342;2023-01-25T01:58:00;94132.41;;;3.09;57.44
39613;BME280;25303;48.896;13.342;2023-01-25T02:00:44;94128.97;;;3.10;57.27
39613;BME280;25303;48.896;13.342;2023-01-25T02:03:27;94128.06;;;3.11;57.41
39613;BME280;25303;48.896;13.342;2023-01-25T02:06:13;94127.16;;;3.12;57.58
39613;BME280;25303;48.896;13.342;2023-01-25T02:08:57;94123.81;;;3.11;57.42
39613;BME280;25303;48.896;13.342;2023-01-25T02:11:40;94132.00;;;3.00;57.07
39613;BME280;25303;48.896;13.342;2023-01-25T02:14:26;94129.16;;;2.73;57.16
39613;BME280;25303;48.896;13.342;2023-01-25T02:17:10;94127.75;;;2.67;57.16
39613;BME280;25303;48.896;13.342;2023-01-25T02:19:58;94126.91;;;2.67;57.13
39613;BME280;25303;48.896;13.342;2023-01-25T02:22:49;94120.75;;;2.71;57.74
39613;BME280;25303;48.896;13.342;2023-01-25T02:25:36;94120.47;;;2.77;57.54
39613;BME280;25303;48.896;13.342;2023-01-25T02:28:24;94123.56;;;2.82;57.75
39613;BME280;25303;48.896;13.342;2023-01-25T02:31:08;94128.59;;;2.84;57.62
39613;BME280;25303;48.896;13.342;2023-01-25T02:33:51;94126.22;;;2.81;57.55
39613;BME280;25303;48.896;13.342;2023-01-25T02:36:34;94125.63;;;2.76;57.17
39613;BME280;25303;48.896;13.342;2023-01-25T02:39:18;94124.94;;;2.72;57.53
39613;BME280;25303;48.896;13.342;2023-01-25T02:42:04;94126.59;;;2.73;57.56
39613;BME280;25303;48.896;13.342;2023-01-25T02:44:48;94136.69;;;2.74;57.37
39613;BME280;25303;48.896;13.342;2023-01-25T02:47:32;94124.88;;;2.73;57.53
39613;BME280;25303;48.896;13.342;2023-01-25T02:50:16;94120.53;;;2.76;57.76
39613;BME280;25303;48.896;13.342;2023-01-25T02:52:59;94123.75;;;2.79;57.44
39613;BME280;25303;48.896;13.342;2023-01-25T02:55:42;94122.91;;;2.79;57.19
39613;BME280;25303;48.896;13.342;2023-01-25T02:58:27;94114.38;;;2.80;57.18
39613;BME280;25303;48.896;13.342;2023-01-25T03:01:10;94111.03;;;2.79;57.47
39613;BME280;25303;48.896;13.342;2023-01-25T03:03:54;94118.50;;;2.82;57.43
39613;BME280;25303;48.896;13.342;2023-01-25T03:06:38;94104.88;;;2.83;57.43
39613;BME280;25303;48.896;13.342;2023-01-25T03:09:22;94103.91;;;2.86;57.62
39613;BME280;25303;48.896;13.342;2023-01-25T03:12:05;94115.00;;;2.85;57.58
39613;BME280;25303;48.896;13.342;2023-01-25T03:14:49;94109.00;;;2.86;57.38
39613;BME280;25303;48.896;13.342;2023-01-25T03:17:32;94101.44;;;2.84;57.44
39613;BME280;25303;48.896;13.342;2023-01-25T03:20:15;94103.16;;;2.84;57.41
39613;BME280;25303;48.896;13.342;2023-01-25T03:22:58;94096.44;;;2.83;57.57
39613;BME280;25303;48.896;13.342;2023-01-25T03:25:42;94098.97;;;2.83;57.48
39613;BME280;25303;48.896;13.342;2023-01-25T03:28:30;94108.16;;;2.85;57.68
39613;BME280;25303;48.896;13.342;2023-01-25T03:31:15;94091.19;;;2.86;57.68
39613;BME280;25303;48.896;13.342;2023-01-25T03:33:59;94089.41;;;2.88;57.48
39613;BME280;25303;48.896;13.342;2023-01-25T03:36:47;94085.97;;;2.89;57.71
39613;BME280;25303;48.896;13.342;2023-01-25T03:39:30;94073.16;;;2.91;57.51
39613;BME280;25303;48.896;13.342;2023-01-25T03:42:13;94069.84;;;2.88;57.65
39613;BME280;25303;48.896;13.342;2023-01-25T03:44:57;94069.84;;;2.88;57.45
39613;BME280;25303;48.896;13.342;2023-01-25T03:47:41;94062.47;;;2.84;57.51
39613;BME280;25303;48.896;13.342;2023-01-25T03:50:24;94076.19;;;2.81;57.53
39613;BME280;25303;48.896;13.342;2023-01-25T03:53:07;94083.81;;;2.81;57.37
39613;BME280;25303;48.896;13.342;2023-01-25T03:56:03;94072.91;;;2.79;57.55
39613;BME280;25303;48.896;13.342;2023-01-25T03:58:48;94065.25;;;2.79;57.46
39613;BME280;25303;48.896;13.342;2023-01-25T04:01:32;94063.63;;;2.78;57.66
39613;BME280;25303;48.896;13.342;2023-01-25T04:04:17;94065.25;;;2.79;57.38
39613;BME280;25303;48.896;13.342;2023-01-25T04:07:02;94055.91;;;2.80;57.58
39613;BME280;25303;48.896;13.342;2023-01-25T04:09:47;94046.72;;;2.77;57.46
39613;BME280;25303;48.896;13.342;2023-01-25T04:12:31;94057.94;;;2.73;57.43
39613;BME280;25303;48.896;13.342;2023-01-25T04:15:15;94057.94;;;2.73;57.41
39613;BME280;25303;48.896;13.342;2023-01-25T04:17:59;94050.31;;;2.73;57.44
39613;BME280;25303;48.896;13.342;2023-01-25T04:20:43;94051.22;;;2.72;57.36
39613;BME280;25303;48.896;13.342;2023-01-25T04:23:26;94031.94;;;2.68;57.42
39613;BME280;25303;48.896;13.342;2023-01-25T04:26:10;94028.72;;;2.64;57.46
39613;BME280;25303;48.896;13.342;2023-01-25T04:28:54;94039.88;;;2.62;57.42
39613;BME280;25303;48.896;13.342;2023-01-25T04:31:37;94029.03;;;2.58;57.42
39613;BME280;25303;48.896;13.342;2023-01-25T04:34:20;94017.22;;;2.57;57.52
39613;BME280;25303;48.896;13.342;2023-01-25T04:37:05;94012.13;;;2.57;57.36
39613;BME280;25303;48.896;13.342;2023-01-25T04:39:55;94011.47;;;2.53;57.48
39613;BME280;25303;48.896;13.342;2023-01-25T04:42:40;94011.72;;;2.49;57.22
39613;BME280;25303;48.896;13.342;2023-01-25T04:45:23;94020.50;;;2.43;57.60
39613;BME280;25303;48.896;13.342;2023-01-25T04:48:10;94016.38;;;2.40;57.55
39613;BME280;25303;48.896;13.342;2023-01-25T04:51:00;94016.38;;;2.40;57.65
39613;BME280;25303;48.896;13.342;2023-01-25T04:53:44;94020.66;;;2.40;57.62
39613;BME280;25303;48.896;13.342;2023-01-25T04:56:27;94031.63;;;2.40;57.94
39613;BME280;25303;48.896;13.342;2023-01-25T04:59:12;94028.94;;;2.43;57.88
39613;BME280;25303;48.896;13.342;2023-01-25T05:01:56;94023.03;;;2.43;57.72
39613;BME280;25303;48.896;13.342;2023-01-25T05:04:39;94025.59;;;2.43;57.80
39613;BME280;25303;48.896;13.342;2023-01-25T05:07:22;94026.47;;;2.42;57.79
39613;BME280;25303;48.896;13.342;2023-01-25T05:10:08;94022.28;;;2.41;57.69
39613;BME280;25303;48.896;13.342;2023-01-25T05:12:57;94015.56;;;2.40;57.67
39613;BME280;25303;48.896;13.342;2023-01-25T05:15:40;94000.41;;;2.38;57.59
39613;BME280;25303;48.896;13.342;2023-01-25T05:18:23;94011.53;;;2.36;57.55
39613;BME280;25303;48.896;13.342;2023-01-25T05:21:11;94010.72;;;2.35;57.90
39613;BME280;25303;48.896;13.342;2023-01-25T05:24:08;94005.69;;;2.34;57.73
39613;BME280;25303;48.896;13.342;2023-01-25T05:26:54;94004.97;;;2.32;57.60
39613;BME280;25303;48.896;13.342;2023-01-25T05:29:58;94002.59;;;2.28;57.63
39613;BME280;25303;48.896;13.342;2023-01-25T05:33:01;94012.06;;;2.25;57.79
39613;BME280;25303;48.896;13.342;2023-01-25T05:35:44;94006.03;;;2.27;57.98
39613;BME280;25303;48.896;13.342;2023-01-25T05:38:28;94003.56;;;2.26;57.60
39613;BME280;25303;48.896;13.342;2023-01-25T05:41:11;94005.44;;;2.22;57.61
39613;BME280;25303;48.896;13.342;2023-01-25T05:43:55;94007.09;;;2.23;57.77
39613;BME280;25303;48.896;13.342;2023-01-25T05:46:38;94008.81;;;2.23;57.89
39613;BME280;25303;48.896;13.342;2023-01-25T05:49:21;94009.47;;;2.26;57.64
39613;BME280;25303;48.896;13.342;2023-01-25T05:52:04;94008.81;;;2.23;57.72
39613;BME280;25303;48.896;13.342;2023-01-25T05:54:47;94012.41;;;2.19;57.71
39613;BME280;25303;48.896;13.342;2023-01-25T05:57:31;94011.06;;;2.11;57.69
39613;BME280;25303;48.896;13.342;2023-01-25T06:00:17;94001.22;;;2.05;57.61
39613;BME280;25303;48.896;13.342;2023-01-25T06:03:00;94002.03;;;2.06;57.80
39613;BME280;25303;48.896;13.342;2023-01-25T06:05:46;94008.75;;;2.07;57.80
39613;BME280;25303;48.896;13.342;2023-01-25T06:08:29;94013.75;;;2.08;57.93
39613;BME280;25303;48.896;13.342;2023-01-25T06:11:14;94013.75;;;2.08;57.75
39613;BME280;25303;48.896;13.342;2023-01-25T06:13:59;94012.09;;;2.07;57.92
39613;BME280;25303;48.896;13.342;2023-01-25T06:16:43;94015.47;;;2.08;58.10
39613;BME280;25303;48.896;13.342;2023-01-25T06:19:43;94011.06;;;2.11;57.93
39613;BME280;25303;48.896;13.342;2023-01-25T06:22:36;94011.88;;;2.12;57.92
39613;BME280;25303;48.896;13.342;2023-01-25T06:25:18;94008.09;;;2.03;57.71
39613;BME280;25303;48.896;13.342;2023-01-25T06:28:01;94007.41;;;2.00;57.82
39613;BME280;25303;48.896;13.342;2023-01-25T06:30:44;94014.97;;;2.01;57.88
39613;BME280;25303;48.896;13.342;2023-01-25T06:33:29;94013.19;;;2.03;57.90
39613;BME280;25303;48.896;13.342;2023-01-25T06:36:12;94007.34;;;2.01;57.91
39613;BME280;25303;48.896;13.342;2023-01-25T06:38:55;94009.13;;;1.99;57.65
39613;BME280;25303;48.896;13.342;2023-01-25T06:41:38;93999.22;;;1.94;57.87
39613;BME280;25303;48.896;13.342;2023-01-25T06:44:21;94005.84;;;1.97;58.05
39613;BME280;25303;48.896;13.342;2023-01-25T06:47:04;94011.69;;;1.99;57.99
39613;BME280;25303;48.896;13.342;2023-01-25T06:49:48;94009.94;;;2.00;58.00
39613;BME280;25303;48.896;13.342;2023-01-25T06:52:31;94007.19;;;2.04;57.98
39613;BME280;25303;48.896;13.342;2023-01-25T06:55:17;93993.66;;;2.04;57.91
39613;BME280;25303;48.896;13.342;2023-01-25T06:58:00;93997.94;;;2.03;57.82
39613;BME280;25303;48.896;13.342;2023-01-25T07:00:42;93990.38;;;2.02;57.81
39613;BME280;25303;48.896;13.342;2023-01-25T07:03:25;93987.91;;;2.00;57.74
39613;BME280;25303;48.896;13.342;2023-01-25T07:06:10;93992.09;;;2.01;57.89
39613;BME280;25303;48.896;13.342;2023-01-25T07:08:53;93984.50;;;2.01;57.60
39613;BME280;25303;48.896;13.342;2023-01-25T07:11:36;93996.53;;;1.97;57.51
39613;BME280;25303;48.896;13.342;2023-01-25T07:14:19;93994.28;;;1.91;57.56
39613;BME280;25303;48.896;13.342;2023-01-25T07:17:02;93991.88;;;1.88;57.61
39613;BME280;25303;48.896;13.342;2023-01-25T07:19:45;93989.34;;;1.88;57.79
39613;BME280;25303;48.896;13.342;2023-01-25T07:22:29;93987.78;;;1.86;57.65
39613;BME280;25303;48.896;13.342;2023-01-25T07:25:13;93991.28;;;1.83;57.26
39613;BME280;25303;48.896;13.342;2023-01-25T07:27:56;93990.78;;;1.76;57.57
39613;BME280;25303;48.896;13.342;2023-01-25T07:30:39;93995.84;;;1.76;57.64
39613;BME280;25303;48.896;13.342;2023-01-25T07:33:22;93995.84;;;1.76;57.59
39613;BME280;25303;48.896;13.342;2023-01-25T07:36:07;93991.66;;;1.75;57.55
39613;BME280;25303;48.896;13.342;2023-01-25T07:38:53;93979.16;;;1.72;57.68
39613;BME280;25303;48.896;13.342;2023-01-25T07:41:37;93989.22;;;1.74;57.75
39613;BME280;25303;48.896;13.342;2023-01-25T07:44:25;93979.81;;;1.76;57.81
39613;BME280;25303;48.896;13.342;2023-01-25T07:47:20;93983.09;;;1.78;57.78
39613;BME280;25303;48.896;13.342;2023-01-25T07:50:04;93979.72;;;1.77;57.57
39613;BME280;25303;48.896;13.342;2023-01-25T07:52:47;93972.94;;;1.78;57.75
39613;BME280;25303;48.896;13.342;2023-01-25T07:55:31;93976.97;;;1.82;57.79
39613;BME280;25303;48.896;13.342;2023-01-25T07:58:14;93975.91;;;1.86;57.70
39613;BME280;25303;48.896;13.342;2023-01-25T08:01:04;93981.72;;;1.88;57.85
39613;BME280;25303;48.896;13.342;2023-01-25T08:03:49;93974.13;;;1.88;57.56
39613;BME280;25303;48.896;13.342;2023-01-25T08:06:34;93979.28;;;1.87;57.70
39613;BME280;25303;48.896;13.342;2023-01-25T08:09:19;93973.50;;;1.83;57.65
39613;BME280;25303;48.896;13.342;2023-01-25T08:12:04;93982.72;;;1.86;57.64
39613;BME280;25303;48.896;13.342;2023-01-25T08:14:49;93987.28;;;1.79;57.44
39613;BME280;25303;48.896;13.342;2023-01-25T08:17:32;93978.16;;;1.75;57.42
39613;BME280;25303;48.896;13.342;2023-01-25T08:20:15;93977.50;;;1.71;57.46
39613;BME280;25303;48.896;13.342;2023-01-25T08:22:58;93990.94;;;1.73;57.50
39613;BME280;25303;48.896;13.342;2023-01-25T08:25:40;93984.78;;;1.77;57.80
39613;BME280;25303;48.896;13.342;2023-01-25T08:28:25;93986.28;;;1.81;57.78
39613;BME280;25303;48.896;13.342;2023-01-25T08:31:09;93984.59;;;1.82;57.48
39613;BME280;25303;48.896;13.342;2023-01-25T08:33:53;93988.16;;;1.78;57.62
39613;BME280;25303;48.896;13.342;2023-01-25T08:36:36;93975.34;;;1.81;57.63
39613;BME280;25303;48.896;13.342;2023-01-25T08:39:19;93977.78;;;1.82;57.69
39613;BME280;25303;48.896;13.342;2023-01-25T08:42:01;93975.09;;;1.86;57.72
39613;BME280;25303;48.896;13.342;2023-01-25T08:44:46;93968.28;;;1.86;57.44
39613;BME280;25303;48.896;13.342;2023-01-25T08:47:29;93969.88;;;1.89;57.67
39613;BME280;25303;48.896;13.342;2023-01-25T08:50:12;93967.50;;;1.68;57.51
39613;BME280;25303;48.896;13.342;2023-01-25T08:52:55;93967.34;;;1.71;57.47
39613;BME280;25303;48.896;13.342;2023-01-25T08:55:38;93963.81;;;1.74;57.56
39613;BME280;25303;48.896;13.342;2023-01-25T08:58:22;93966.13;;;1.78;57.71
39613;BME280;25303;48.896;13.342;2023-01-25T09:01:07;93967.47;;;1.86;57.72
39613;BME280;25303;48.896;13.342;2023-01-25T09:03:50;93958.06;;;1.88;57.56
39613;BME280;25303;48.896;13.342;2023-01-25T09:06:33;93962.16;;;1.90;57.48
39613;BME280;25303;48.896;13.342;2023-01-25T09:09:16;93958.72;;;1.91;57.64
39613;BME280;25303;48.896;13.342;2023-01-25T09:11:59;93961.03;;;1.96;57.53
39613;BME280;25303;48.896;13.342;2023-01-25T09:14:42;93955.00;;;1.99;57.49
39613;BME280;25303;48.896;13.342;2023-01-25T09:17:27;93949.91;;;1.99;57.41
39613;BME280;25303;48.896;13.342;2023-01-25T09:20:10;93953.56;;;1.93;57.38
39613;BME280;25303;48.896;13.342;2023-01-25T09:22:53;93953.28;;;1.81;57.10
39613;BME280;25303;48.896;13.342;2023-01-25T09:25:36;93955.91;;;1.80;57.39
39613;BME280;25303;48.896;13.342;2023-01-25T09:28:19;93954.34;;;1.77;57.47
39613;BME280;25303;48.896;13.342;2023-01-25T09:31:03;93951.13;;;1.74;57.41
39613;BME280;25303;48.896;13.342;2023-01-25T09:34:28;93953.66;;;1.74;57.53
39613;BME280;25303;48.896;13.342;2023-01-25T09:37:11;93949.78;;;1.66;57.56
39613;BME280;25303;48.896;13.342;2023-01-25T09:39:54;93938.97;;;1.63;57.50
39613;BME280;25303;48.896;13.342;2023-01-25T09:42:46;93943.75;;;1.51;57.30
39613;BME280;25303;48.896;13.342;2023-01-25T09:45:35;93938.41;;;1.40;57.17
39613;BME280;25303;48.896;13.342;2023-01-25T09:48:24;93942.63;;;1.40;57.76
39613;BME280;25303;48.896;13.342;2023-01-25T09:51:19;93938.31;;;1.42;58.27
39613;BME280;25303;48.896;13.342;2023-01-25T09:54:06;93936.00;;;1.55;58.12
39613;BME280;25303;48.896;13.342;2023-01-25T09:56:51;93937.09;;;1.66;58.27
39613;BME280;25303;48.896;13.342;2023-01-25T09:59:34;93931.47;;;1.77;58.14
39613;BME280;25303;48.896;13.342;2023-01-25T10:02:32;93935.22;;;1.88;58.26
39613;BME280;25303;48.896;13.342;2023-01-25T10:05:20;93920.41;;;1.96;57.70
39613;BME280;25303;48.896;13.342;2023-01-25T10:08:13;93917.34;;;1.89;57.35
39613;BME280;25303;48.896;13.342;2023-01-25T10:11:07;93916.94;;;1.81;57.21
39613;BME280;25303;48.896;13.342;2023-01-25T10:13:53;93911.50;;;1.71;57.54
39613;BME280;25303;48.896;13.342;2023-01-25T10:16:43;93909.78;;;1.72;57.64
39613;BME280;25303;48.896;13.342;2023-01-25T10:19:41;93898.31;;;1.80;57.89
39613;BME280;25303;48.896;13.342;2023-01-25T10:22:28;93889.91;;;1.96;58.31
39613;BME280;25303;48.896;13.342;2023-01-25T10:25:29;93886.94;;;2.05;58.13
39613;BME280;25303;48.896;13.342;2023-01-25T10:28:28;93874.72;;;2.12;57.90
39613;BME280;25303;48.896;13.342;2023-01-25T10:31:17;93877.41;;;2.25;58.04
39613;BME280;25303;48.896;13.342;2023-01-25T10:34:01;93868.47;;;2.34;57.61
39613;BME280;25303;48.896;13.342;2023-01-25T10:36:56;93860.44;;;2.41;57.60
39613;BME280;25303;48.896;13.342;2023-01-25T10:39:51;93860.97;;;2.48;57.43
39613;BME280;25303;48.896;13.342;2023-01-25T10:42:42;93862.50;;;2.51;57.31
39613;BME280;25303;48.896;13.342;2023-01-25T10:45:26;93854.25;;;2.47;56.74
39613;BME280;25303;48.896;13.342;2023-01-25T10:48:13;93852.19;;;2.54;57.05
39613;BME280;25303;48.896;13.342;2023-01-25T10:50:57;93851.81;;;2.60;57.00
39613;BME280;25303;48.896;13.342;2023-01-25T10:53:40;93847.56;;;2.61;56.95
39613;BME280;25303;48.896;13.342;2023-01-25T10:56:25;93848.22;;;2.64;56.97
39613;BME280;25303;48.896;13.342;2023-01-25T10:59:15;93834.59;;;2.65;56.80
39613;BME280;25303;48.896;13.342;2023-01-25T11:02:24;93830.00;;;2.72;56.86
39613;BME280;25303;48.896;13.342;2023-01-25T11:05:26;93832.13;;;2.80;56.85
39613;BME280;25303;48.896;13.342;2023-01-25T11:08:20;93819.88;;;2.86;56.90
39613;BME280;25303;48.896;13.342;2023-01-25T11:11:22;93818.06;;;2.88;56.72
39613;BME280;25303;48.896;13.342;2023-01-25T11:14:16;93811.00;;;2.94;56.75
39613;BME280;25303;48.896;13.342;2023-01-25T11:17:00;93811.53;;;2.99;56.83
39613;BME280;25303;48.896;13.342;2023-01-25T11:19:44;93803.75;;;3.02;56.77
39613;BME280;25303;48.896;13.342;2023-01-25T11:22:27;93799.56;;;3.01;56.35
39613;BME280;25303;48.896;13.342;2023-01-25T11:25:29;93798.03;;;2.98;56.16
39613;BME280;25303;48.896;13.342;2023-01-25T11:28:20;93795.13;;;3.04;56.72
39613;BME280;25303;48.896;13.342;2023-01-25T11:31:08;93783.69;;;3.12;56.46
39613;BME280;25303;48.896;13.342;2023-01-25T11:33:53;93779.97;;;3.17;56.59
39613;BME280;25303;48.896;13.342;2023-01-25T11:36:42;93774.69;;;3.21;56.47
39613;BME280;25303;48.896;13.342;2023-01-25T11:39:39;93776.91;;;3.27;56.15
39613;BME280;25303;48.896;13.342;2023-01-25T11:42:32;93768.97;;;3.31;56.30
39613;BME280;25303;48.896;13.342;2023-01-25T11:45:43;93764.69;;;3.32;55.96
39613;BME280;25303;48.896;13.342;2023-01-25T11:48:49;93756.25;;;3.31;56.10
39613;BME280;25303;48.896;13.342;2023-01-25T11:51:39;93748.81;;;3.28;55.77
39613;BME280;25303;48.896;13.342;2023-01-25T11:54:32;93748.34;;;3.22;55.77
39613;BME280;25303;48.896;13.342;2023-01-25T11:57:28;93745.97;;;3.18;55.85
39613;BME280;25303;48.896;13.342;2023-01-25T12:00:32;93734.09;;;3.19;55.75
39613;BME280;25303;48.896;13.342;2023-01-25T12:06:36;93723.06;;;2.89;55.42
39613;BME280;25303;48.896;13.342;2023-01-25T12:09:42;93717.88;;;2.91;56.35
39613;BME280;25303;48.896;13.342;2023-01-25T12:12:40;93714.34;;;2.94;55.93
39613;BME280;25303;48.896;13.342;2023-01-25T12:15:43;93713.44;;;2.95;55.97
39613;BME280;25303;48.896;13.342;2023-01-25T12:22:07;93701.06;;;2.88;56.02
39613;BME280;25303;48.896;13.342;2023-01-25T12:25:01;93699.53;;;3.00;56.73
39613;BME280;25303;48.896;13.342;2023-01-25T12:27:56;93693.84;;;3.11;56.59
39613;BME280;25303;48.896;13.342;2023-01-25T12:30:49;93691.28;;;3.26;56.45
39613;BME280;25303;48.896;13.342;2023-01-25T12:33:39;93685.81;;;3.32;56.37
39613;BME280;25303;48.896;13.342;2023-01-25T12:36:27;93681.72;;;3.44;56.56
39613;BME280;25303;48.896;13.342;2023-01-25T12:39:19;93683.59;;;3.55;56.54
39613;BME280;25303;48.896;13.342;2023-01-25T12:42:11;93674.69;;;3.62;56.41
39613;BME280;25303;48.896;13.342;2023-01-25T12:44:59;93669.31;;;3.67;56.14
39613;BME280;25303;48.896;13.342;2023-01-25T12:47:50;93664.97;;;3.54;55.63
39613;BME280;25303;48.896;13.342;2023-01-25T12:50:40;93656.63;;;3.52;56.08
39613;BME280;25303;48.896;13.342;2023-01-25T12:53:32;93650.63;;;3.53;55.82
39613;BME280;25303;48.896;13.342;2023-01-25T12:56:27;93651.16;;;3.44;55.52
39613;BME280;25303;48.896;13.342;2023-01-25T12:59:19;93648.09;;;3.39;55.95
39613;BME280;25303;48.896;13.342;2023-01-25T13:02:17;93645.28;;;3.43;56.27
39613;BME280;25303;48.896;13.342;2023-01-25T13:05:16;93646.25;;;3.55;56.14
39613;BME280;25303;48.896;13.342;2023-01-25T13:08:12;93632.94;;;3.64;56.21
39613;BME280;25303;48.896;13.342;2023-01-25T13:11:16;93626.34;;;3.75;56.13
39613;BME280;25303;48.896;13.342;2023-01-25T13:14:28;93627.72;;;3.80;55.89
39613;BME280;25303;48.896;13.342;2023-01-25T13:17:20;93627.22;;;3.88;56.02
39613;BME280;25303;48.896;13.342;2023-01-25T13:20:46;93622.75;;;3.92;55.87
39613;BME280;25303;48.896;13.342;2023-01-25T13:23:31;93620.50;;;4.00;56.13
39613;BME280;25303;48.896;13.342;2023-01-25T13:26:36;93613.56;;;3.89;55.58
39613;BME280;25303;48.896;13.342;2023-01-25T13:30:01;93611.72;;;3.78;55.52
39613;BME280;25303;48.896;13.342;2023-01-25T13:33:03;93601.19;;;3.70;55.82
39613;BME280;25303;48.896;13.342;2023-01-25T13:35:47;93599.03;;;3.64;55.79
39613;BME280;25303;48.896;13.342;2023-01-25T13:38:33;93593.84;;;3.65;56.02
39613;BME280;25303;48.896;13.342;2023-01-25T13:41:18;93591.41;;;3.64;55.73
39613;BME280;25303;48.896;13.342;2023-01-25T13:44:19;93585.41;;;3.50;55.45
39613;BME280;25303;48.896;13.342;2023-01-25T13:47:10;93583.78;;;3.49;55.81
39613;BME280;25303;48.896;13.342;2023-01-25T13:49:58;93582.38;;;3.58;56.22
39613;BME280;25303;48.896;13.342;2023-01-25T13:52:55;93584.66;;;3.63;55.98
39613;BME280;25303;48.896;13.342;2023-01-25T13:55:40;93578.66;;;3.64;55.91
39613;BME280;25303;48.896;13.342;2023-01-25T13:58:25;93574.38;;;3.64;55.87
39613;BME280;25303;48.896;13.342;2023-01-25T14:01:14;93571.94;;;3.63;55.87
39613;BME280;25303;48.896;13.342;2023-01-25T14:04:02;93570.38;;;3.60;55.96
39613;BME280;25303;48.896;13.342;2023-01-25T14:06:45;93566.91;;;3.61;55.59
39613;BME280;25303;48.896;13.342;2023-01-25T14:09:28;93567.84;;;3.60;55.74
39613;BME280;25303;48.896;13.342;2023-01-25T14:12:22;93563.66;;;3.59;55.71
39613;BME280;25303;48.896;13.342;2023-01-25T14:15:19;93575.59;;;3.59;55.68
39613;BME280;25303;48.896;13.342;2023-01-25T14:18:11;93572.91;;;3.60;55.75
39613;BME280;25303;48.896;13.342;2023-01-25T14:21:10;93568.75;;;3.59;55.78
39613;BME280;25303;48.896;13.342;2023-01-25T14:24:07;93566.13;;;3.61;56.01
39613;BME280;25303;48.896;13.342;2023-01-25T14:26:50;93565.09;;;3.63;55.78
39613;BME280;25303;48.896;13.342;2023-01-25T14:29:34;93562.44;;;3.65;55.91
39613;BME280;25303;48.896;13.342;2023-01-25T14:32:18;93565.63;;;3.69;55.80
39613;BME280;25303;48.896;13.342;2023-01-25T14:35:36;93552.06;;;3.68;55.92
39613;BME280;25303;48.896;13.342;2023-01-25T14:38:38;93553.09;;;3.65;55.86
39613;BME280;25303;48.896;13.342;2023-01-25T14:41:25;93550.72;;;3.62;55.52
39613;BME280;25303;48.896;13.342;2023-01-25T14:44:11;93550.00;;;3.60;55.53
39613;BME280;25303;48.896;13.342;2023-01-25T14:47:27;93546.44;;;3.50;55.79
39613;BME280;25303;48.896;13.342;2023-01-25T14:50:30;93543.97;;;3.48;55.39
39613;BME280;25303;48.896;13.342;2023-01-25T14:53:18;93543.16;;;3.48;55.78
39613;BME280;25303;48.896;13.342;2023-01-25T14:56:03;93541.53;;;3.47;55.75